createdAt,value
2023-02-20T00:02:50.556Z,98902.75
2023-02-20T00:07:52.382Z,98891.75
2023-02-20T00:12:54.560Z,98900.31
2023-02-20T00:17:56.328Z,98900.31
2023-02-20T00:22:58.135Z,98898.59
2023-02-20T00:28:00.110Z,98895.84
2023-02-20T00:33:02.117Z,98891.38
2023-02-20T00:38:03.974Z,98883.28
2023-02-20T00:43:05.748Z,98873.03
2023-02-20T00:48:09.998Z,98863.59
2023-02-20T00:53:11.753Z,98873.53
2023-02-20T00:58:13.490Z,98863.75
2023-02-20T01:03:15.603Z,98857.28
2023-02-20T01:08:18.278Z,98855.38
2023-02-20T01:13:20.314Z,98838.28
2023-02-20T01:18:22.217Z,98850.53
2023-02-20T01:23:26.924Z,98845.38
2023-02-20T01:28:28.721Z,98841.63
2023-02-20T01:33:30.496Z,98828.81
2023-02-20T01:38:32.255Z,98825.34
2023-02-20T01:43:34.237Z,98824.75
2023-02-20T01:48:36.007Z,98815.19
2023-02-20T01:53:37.779Z,98811.03
2023-02-20T01:58:50.019Z,98799.66
2023-02-20T02:04:00.187Z,98809.19
2023-02-20T02:09:09.455Z,98803.53
2023-02-20T02:14:11.241Z,98803.88
2023-02-20T02:19:25.114Z,98798.63
2023-02-20T02:24:44.561Z,98782.63
2023-02-20T02:30:22.348Z,98788.69
2023-02-20T02:35:55.325Z,98779.03
2023-02-20T02:41:32.723Z,98775.72
2023-02-20T02:47:11.782Z,98779.69
2023-02-20T02:52:35.006Z,98788.41
2023-02-20T02:57:37.106Z,98778.75
2023-02-20T03:02:45.645Z,98741.78
2023-02-20T03:07:52.022Z,98734.34
2023-02-20T03:12:55.047Z,98735.75
2023-02-20T03:18:10.852Z,98729.28
2023-02-20T03:23:21.741Z,98732.91
2023-02-20T03:28:28.830Z,98728.47
2023-02-20T03:34:08.393Z,98725.13
2023-02-20T03:39:39.270Z,98723.22
2023-02-20T03:44:43.316Z,98712.28
2023-02-20T03:49:46.924Z,98718.78
2023-02-20T03:54:52.438Z,98711.63
2023-02-20T04:00:06.192Z,98709.25
2023-02-20T04:05:21.780Z,98721.97
2023-02-20T04:10:29.143Z,98722.09
2023-02-20T04:15:33.780Z,98717.97
2023-02-20T04:26:06.889Z,98681.94
2023-02-20T04:31:14.701Z,98683.69
2023-02-20T04:36:17.501Z,98677.97
2023-02-20T04:41:20.081Z,98666.22
2023-02-20T04:46:23.306Z,98669.84
2023-02-20T04:51:25.205Z,98682.72
2023-02-20T04:56:27.416Z,98679.69
2023-02-20T05:01:30.056Z,98681.88
2023-02-20T05:06:31.900Z,98674.75
2023-02-20T05:11:33.642Z,98667.25
2023-02-20T05:16:40.279Z,98675.34
2023-02-20T05:22:03.873Z,98654.50
2023-02-20T05:27:05.872Z,98645.72
2023-02-20T05:32:07.647Z,98641.25
2023-02-20T05:37:09.877Z,98637.00
2023-02-20T05:42:11.841Z,98614.25
2023-02-20T05:47:13.689Z,98598.06
2023-02-20T05:52:15.536Z,98604.06
2023-02-20T05:57:17.375Z,98612.03
2023-02-20T06:02:19.154Z,98599.63
2023-02-20T06:07:20.939Z,98611.25
2023-02-20T06:12:22.877Z,98606.63
2023-02-20T06:17:24.654Z,98609.00
2023-02-20T06:22:26.409Z,98619.94
2023-02-20T06:27:28.141Z,98613.88
2023-02-20T06:32:30.475Z,98601.78
2023-02-20T06:37:32.262Z,98606.91
2023-02-20T06:42:34.011Z,98608.34
2023-02-20T06:47:35.780Z,98624.78
2023-02-20T06:52:37.690Z,98612.84
2023-02-20T06:57:39.481Z,98599.34
2023-02-20T07:02:41.262Z,98615.22
2023-02-20T07:07:43.074Z,98619.06
2023-02-20T07:12:44.827Z,98597.56
2023-02-20T07:17:46.581Z,98589.91
2023-02-20T07:22:52.698Z,98580.94
2023-02-20T07:27:54.438Z,98577.81
2023-02-20T07:32:56.241Z,98570.63
2023-02-20T07:37:58.028Z,98578.63
2023-02-20T07:42:59.801Z,98577.47
2023-02-20T07:48:04.210Z,98559.44
2023-02-20T07:53:06.026Z,98543.03
2023-02-20T07:58:08.088Z,98536.75
2023-02-20T08:03:09.960Z,98519.19
2023-02-20T08:08:11.795Z,98548.72
2023-02-20T08:13:13.636Z,98554.22
2023-02-20T08:18:23.650Z,98494.22
2023-02-20T08:23:26.060Z,98494.66
2023-02-20T08:28:27.928Z,98502.34
2023-02-20T08:33:29.721Z,98513.06
2023-02-20T08:38:38.754Z,98516.09
2023-02-20T08:43:41.247Z,98507.63
2023-02-20T08:49:14.480Z,98492.88
2023-02-20T08:54:16.643Z,98484.59
2023-02-20T08:59:18.500Z,98521.16
2023-02-20T09:04:24.345Z,98480.06
2023-02-20T09:09:26.124Z,98463.06
2023-02-20T09:14:28.115Z,98467.38
2023-02-20T09:19:29.957Z,98449.03
2023-02-20T09:24:34.690Z,98425.28
2023-02-20T09:29:45.359Z,98413.91
2023-02-20T09:34:47.204Z,98416.63
2023-02-20T09:39:48.986Z,98428.63
2023-02-20T09:44:56.628Z,98426.69
2023-02-20T09:50:01.974Z,98416.69
2023-02-20T09:55:15.790Z,98391.63
2023-02-20T10:00:22.985Z,98386.78
2023-02-20T10:05:29.607Z,98388.84
2023-02-20T10:16:22.247Z,98377.59
2023-02-20T10:21:39.432Z,98387.09
2023-02-20T10:26:42.912Z,98396.97
2023-02-20T10:31:52.619Z,98393.47
2023-02-20T10:36:54.949Z,98372.66
2023-02-20T10:47:50.529Z,98364.47
2023-02-20T10:52:54.357Z,98371.97
2023-02-20T11:04:16.631Z,98378.06
2023-02-20T11:09:20.226Z,98329.94
2023-02-20T11:14:41.911Z,98330.84
2023-02-20T11:20:08.728Z,98308.72
2023-02-20T11:25:20.816Z,98306.84
2023-02-20T11:30:32.097Z,98265.00
2023-02-20T11:35:49.230Z,98257.38
2023-02-20T11:40:53.833Z,98226.31
2023-02-20T11:46:09.542Z,98216.63
2023-02-20T11:51:39.719Z,98211.63
2023-02-20T11:57:19.792Z,98203.19
2023-02-20T12:02:27.338Z,98211.59
2023-02-20T12:07:44.408Z,98211.75
2023-02-20T12:12:46.237Z,98192.41
2023-02-20T12:18:13.792Z,98175.44
2023-02-20T12:23:23.954Z,98163.59
2023-02-20T12:28:35.111Z,98182.53
2023-02-20T12:33:48.582Z,98189.00
2023-02-20T12:38:58.563Z,98160.25
2023-02-20T12:44:13.517Z,98163.41
2023-02-20T12:49:40.414Z,98146.31
2023-02-20T12:55:07.687Z,98168.84
2023-02-20T13:00:46.500Z,98154.41
2023-02-20T13:05:50.275Z,98153.97
2023-02-20T13:11:02.949Z,98138.31
2023-02-20T13:16:10.993Z,98162.09
2023-02-20T13:21:17.124Z,98134.44
2023-02-20T13:31:38.931Z,98132.31
2023-02-20T13:36:42.595Z,98104.94
2023-02-20T13:41:56.320Z,98119.78
2023-02-20T13:52:41.906Z,98112.31
2023-02-20T13:57:51.044Z,98090.13
2023-02-20T14:02:53.684Z,98107.66
2023-02-20T14:07:55.497Z,98089.03
2023-02-20T14:13:07.496Z,98093.00
2023-02-20T14:18:33.161Z,98091.50
2023-02-20T14:23:59.699Z,98083.91
2023-02-20T14:29:11.872Z,98084.19
2023-02-20T14:34:24.468Z,98084.13
2023-02-20T14:39:47.915Z,98081.72
2023-02-20T14:44:53.352Z,98081.84
2023-02-20T14:50:07.411Z,98093.84
2023-02-20T15:00:45.487Z,98110.72
2023-02-20T15:05:47.674Z,98109.06
2023-02-20T15:10:57.254Z,98110.91
2023-02-20T15:16:21.062Z,98102.25
2023-02-20T15:21:36.362Z,98106.47
2023-02-20T15:26:38.795Z,98112.28
2023-02-20T15:31:41.006Z,98123.91
2023-02-20T15:36:42.945Z,98123.06
2023-02-20T15:41:46.116Z,98123.03
2023-02-20T15:46:47.983Z,98126.88
2023-02-20T15:51:52.376Z,98115.53
2023-02-20T15:56:56.004Z,98134.59
2023-02-20T16:01:57.954Z,98141.09
2023-02-20T16:06:59.769Z,98141.44
2023-02-20T16:12:02.410Z,98122.31
2023-02-20T16:17:04.274Z,98125.53
2023-02-20T16:22:06.751Z,98116.66
2023-02-20T16:27:23.897Z,98125.31
2023-02-20T16:32:28.378Z,98125.47
2023-02-20T16:37:31.150Z,98134.72
2023-02-20T16:42:35.215Z,98125.53
2023-02-20T16:47:36.964Z,98126.75
2023-02-20T16:52:40.745Z,98126.78
2023-02-20T16:57:42.549Z,98143.94
2023-02-20T17:02:44.852Z,98144.38
2023-02-20T17:07:46.621Z,98151.78
2023-02-20T17:12:48.481Z,98157.66
2023-02-20T17:17:50.609Z,98153.41
2023-02-20T17:28:11.647Z,98158.53
2023-02-20T17:33:13.505Z,98152.69
2023-02-20T17:38:15.780Z,98148.78
2023-02-20T17:43:17.527Z,98157.72
2023-02-20T17:48:19.286Z,98158.53
2023-02-20T17:53:21.109Z,98150.78
2023-02-20T17:58:22.861Z,98153.09
2023-02-20T18:03:39.974Z,98156.97
2023-02-20T18:08:41.742Z,98163.59
2023-02-20T18:13:44.212Z,98159.28
2023-02-20T18:18:46.090Z,98177.88
2023-02-20T18:23:47.889Z,98182.53
2023-02-20T18:28:49.822Z,98202.75
2023-02-20T18:33:53.408Z,98216.78
2023-02-20T18:38:56.341Z,98218.75
2023-02-20T18:43:58.107Z,98251.69
2023-02-20T18:49:00.983Z,98256.06
2023-02-20T18:54:05.097Z,98243.81
2023-02-20T18:59:06.888Z,98250.41
2023-02-20T19:04:08.837Z,98232.31
2023-02-20T19:09:19.557Z,98223.19
2023-02-20T19:14:22.907Z,98210.28
2023-02-20T19:19:27.320Z,98197.81
2023-02-20T19:24:29.118Z,98194.34
2023-02-20T19:29:30.896Z,98192.31
2023-02-20T19:34:32.693Z,98193.91
2023-02-20T19:39:34.462Z,98194.75
2023-02-20T19:44:37.896Z,98198.00
2023-02-20T19:49:39.643Z,98187.09
2023-02-20T19:54:45.124Z,98178.56
2023-02-20T19:59:46.900Z,98166.13
2023-02-20T20:04:48.719Z,98160.22
2023-02-20T20:09:50.706Z,98169.03
2023-02-20T20:14:52.554Z,98172.84
2023-02-20T20:20:01.445Z,98167.47
2023-02-20T20:25:04.092Z,98165.91
2023-02-20T20:30:19.268Z,98163.63
2023-02-20T20:35:23.118Z,98157.84
2023-02-20T20:40:29.037Z,98151.41
2023-02-20T20:45:30.898Z,98157.22
2023-02-20T20:50:32.793Z,98167.63
2023-02-20T20:55:34.829Z,98166.88
2023-02-20T21:00:36.692Z,98161.78
2023-02-20T21:05:38.451Z,98155.88
2023-02-20T21:10:40.271Z,98153.38
2023-02-20T21:15:42.168Z,98142.59
2023-02-20T21:20:44.000Z,98139.47
2023-02-20T21:25:45.748Z,98152.75
2023-02-20T21:30:47.793Z,98156.16
2023-02-20T21:35:49.577Z,98164.25
2023-02-20T21:40:51.333Z,98161.13
2023-02-20T21:45:53.112Z,98149.28
2023-02-20T21:50:55.003Z,98151.78
2023-02-20T21:55:56.791Z,98160.22
2023-02-20T22:00:58.506Z,98155.16
2023-02-20T22:06:00.196Z,98154.69
2023-02-20T22:11:20.483Z,98165.09
2023-02-20T22:16:40.789Z,98163.25
2023-02-20T22:22:01.170Z,98162.16
2023-02-20T22:27:21.647Z,98154.44
2023-02-20T22:32:42.344Z,98160.34
2023-02-20T22:38:05.665Z,98147.44
2023-02-20T22:43:25.908Z,98136.50
2023-02-20T22:48:46.154Z,98133.31
2023-02-20T22:54:07.018Z,98136.44
2023-02-20T22:59:27.931Z,98128.66
2023-02-20T23:04:48.319Z,98127.03
2023-02-20T23:10:08.523Z,98132.47
2023-02-20T23:15:28.867Z,98123.94
2023-02-20T23:20:49.727Z,98113.03
2023-02-20T23:26:10.093Z,98137.88
2023-02-20T23:31:30.960Z,98125.38
2023-02-20T23:36:51.402Z,98139.19
2023-02-20T23:42:12.013Z,98140.59
2023-02-20T23:47:32.440Z,98130.41
2023-02-20T23:52:52.376Z,98150.44
2023-02-20T23:58:12.483Z,98132.28
